GVAC/SID METAR and TAF weather

Enter ICAO airport designator
Station Type Date Time Source
GVAC METAR 2020/04/06 09:00 UTC NOAA

GVAC 060900Z 04017KT 9999 BKN014 22/16 Q1017 NOSIG


Station Type Date Time Source
GVAC Decoded METAR 2020/04/06 09:00 UTC NOAA

Sal, Cape Verde (GVAC) 16-44N 022-57W 55M
Apr 06, 2020 - 05:00 AM EDT / 2020.04.06 0900 UTC
Wind: from the NE (040 degrees) at 20 MPH (17 KT):0
Visibility: greater than 7 mile(s):0
Sky conditions: mostly cloudy
Temperature: 71 F (22 C)
Dew Point: 60 F (16 C)
Relative Humidity: 68%
Pressure (altimeter): 30.03 in. Hg (1017 hPa)
ob: GVAC 060900Z 04017KT 9999 BKN014 22/16 Q1017 NOSIG
cycle: 9

Station Type Date Time Source
GVAC TAF 2020/04/06 06:55 UTC NOAA

TAF GVAC 060500Z 0606/0712 05016KT 9999 BKN013

Example: see airport list